FHV2 KMDW-KLGA
Flight info
| Callsign | FHV2 |
|---|---|
| Flight time | N/A |
| Altitude | 39000 |
| Route | LEWKE ZIINE Q186 WEVEL ETG MIP4 |
| Aircraft | B738/M-SDE2E3FGHIRWXY/LB1 |
Departure
| Time | N/A |
|---|---|
| Airport | Chicago Midway International Airport (KMDW) |
Arrival
| Time | 2026-05-04 15:17 |
|---|---|
| Airport | LaGuardia Airport (KLGA) |
| Time | Latitude | Longitude | Altitude | Speed | Heading |
|---|---|---|---|---|---|
| 2026-05-04 14:35 | 41.24797 | -78.43982 | 38941 ft | 499 kts | 97° |
| 2026-05-04 14:36 | 41.23788 | -78.34859 | 38931 ft | 499 kts | 97° |
| 2026-05-04 14:36 | 41.23282 | -78.30266 | 38699 ft | 504 kts | 97° |
| 2026-05-04 14:36 | 41.22773 | -78.25678 | 38455 ft | 502 kts | 97° |
| 2026-05-04 14:36 | 41.22263 | -78.21106 | 38170 ft | 498 kts | 97° |
| 2026-05-04 14:37 | 41.21754 | -78.16554 | 37900 ft | 496 kts | 97° |
| 2026-05-04 14:37 | 41.21239 | -78.12028 | 37628 ft | 495 kts | 97° |
| 2026-05-04 14:37 | 41.20701 | -78.07570 | 37361 ft | 493 kts | 98° |
| 2026-05-04 14:37 | 41.20141 | -78.03080 | 37101 ft | 492 kts | 98° |
| 2026-05-04 14:38 | 41.19575 | -77.98599 | 36842 ft | 491 kts | 98° |
| 2026-05-04 14:38 | 41.19008 | -77.94123 | 36589 ft | 491 kts | 98° |
| 2026-05-04 14:38 | 41.18442 | -77.89652 | 36338 ft | 491 kts | 97° |
| 2026-05-04 14:38 | 41.17878 | -77.85186 | 36086 ft | 490 kts | 97° |
| 2026-05-04 14:39 | 41.17315 | -77.80721 | 35835 ft | 490 kts | 97° |
| 2026-05-04 14:39 | 41.16752 | -77.76266 | 35591 ft | 489 kts | 97° |
| 2026-05-04 14:39 | 41.16189 | -77.71807 | 35343 ft | 489 kts | 97° |
| 2026-05-04 14:40 | 41.15067 | -77.62973 | 34875 ft | 488 kts | 97° |
| 2026-05-04 14:40 | 41.14499 | -77.58535 | 34636 ft | 488 kts | 97° |
| 2026-05-04 14:40 | 41.13929 | -77.54088 | 34394 ft | 487 kts | 97° |
| 2026-05-04 14:40 | 41.13360 | -77.49665 | 34168 ft | 487 kts | 97° |
| 2026-05-04 14:41 | 41.12790 | -77.45241 | 33929 ft | 486 kts | 96° |
| 2026-05-04 14:41 | 41.12219 | -77.40825 | 33654 ft | 485 kts | 97° |
| 2026-05-04 14:41 | 41.11074 | -77.32002 | 32965 ft | 484 kts | 97° |
| 2026-05-04 14:42 | 41.09944 | -77.23399 | 32938 ft | 458 kts | 97° |
| 2026-05-04 14:42 | 41.09402 | -77.19301 | 32801 ft | 447 kts | 97° |
| 2026-05-04 14:42 | 41.08870 | -77.15271 | 32422 ft | 442 kts | 97° |
| 2026-05-04 14:43 | 41.08342 | -77.11268 | 31787 ft | 443 kts | 97° |
| 2026-05-04 14:43 | 41.07806 | -77.07188 | 30573 ft | 457 kts | 97° |
| 2026-05-04 14:43 | 41.07250 | -77.02967 | 29413 ft | 470 kts | 97° |
| 2026-05-04 14:43 | 41.06690 | -76.98752 | 28673 ft | 468 kts | 97° |
| 2026-05-04 14:44 | 41.06123 | -76.94525 | 28179 ft | 462 kts | 97° |
| 2026-05-04 14:44 | 41.05563 | -76.90370 | 27673 ft | 455 kts | 97° |
| 2026-05-04 14:44 | 41.05009 | -76.86262 | 27077 ft | 451 kts | 97° |
| 2026-05-04 14:44 | 41.04458 | -76.82168 | 26475 ft | 449 kts | 97° |
| 2026-05-04 14:45 | 41.03911 | -76.78114 | 25909 ft | 445 kts | 97° |
| 2026-05-04 14:45 | 41.03366 | -76.74085 | 25366 ft | 442 kts | 98° |
| 2026-05-04 14:45 | 41.02831 | -76.70143 | 24835 ft | 438 kts | 98° |
| 2026-05-04 14:45 | 41.02278 | -76.66161 | 24043 ft | 442 kts | 100° |
| 2026-05-04 14:46 | 41.01507 | -76.62218 | 23454 ft | 442 kts | 105° |
| 2026-05-04 14:46 | 41.00566 | -76.58346 | 22828 ft | 443 kts | 107° |
| 2026-05-04 14:46 | 40.99547 | -76.54393 | 22271 ft | 463 kts | 108° |
| 2026-05-04 14:46 | 40.98504 | -76.50325 | 21695 ft | 467 kts | 107° |
| 2026-05-04 14:47 | 40.97483 | -76.46248 | 21135 ft | 465 kts | 107° |
| 2026-05-04 14:47 | 40.96492 | -76.42206 | 20581 ft | 460 kts | 107° |
| 2026-05-04 14:47 | 40.95521 | -76.38194 | 20029 ft | 455 kts | 107° |
| 2026-05-04 14:47 | 40.94565 | -76.34224 | 19495 ft | 451 kts | 107° |
| 2026-05-04 14:48 | 40.93613 | -76.30280 | 18958 ft | 448 kts | 107° |
| 2026-05-04 14:48 | 40.92678 | -76.26415 | 18427 ft | 446 kts | 108° |
| 2026-05-04 14:48 | 40.91732 | -76.22525 | 17880 ft | 443 kts | 108° |
| 2026-05-04 14:48 | 40.90793 | -76.18672 | 17467 ft | 437 kts | 108° |
| 2026-05-04 14:49 | 40.89860 | -76.14858 | 17078 ft | 433 kts | 108° |
| 2026-05-04 14:49 | 40.88937 | -76.11084 | 16695 ft | 430 kts | 108° |
| 2026-05-04 14:49 | 40.88016 | -76.07322 | 16319 ft | 432 kts | 108° |
| 2026-05-04 14:49 | 40.87087 | -76.03537 | 15934 ft | 433 kts | 108° |
| 2026-05-04 14:50 | 40.86164 | -75.99778 | 15547 ft | 428 kts | 108° |
| 2026-05-04 14:50 | 40.85245 | -75.96040 | 15157 ft | 426 kts | 108° |
| 2026-05-04 14:50 | 40.84329 | -75.92316 | 14796 ft | 424 kts | 108° |
| 2026-05-04 14:50 | 40.83418 | -75.88626 | 14427 ft | 422 kts | 108° |
| 2026-05-04 14:51 | 40.82507 | -75.84938 | 14041 ft | 421 kts | 108° |
| 2026-05-04 14:51 | 40.81613 | -75.81316 | 13664 ft | 419 kts | 108° |
| 2026-05-04 14:51 | 40.80709 | -75.77668 | 13273 ft | 418 kts | 108° |
| 2026-05-04 14:51 | 40.79807 | -75.74036 | 12921 ft | 414 kts | 108° |
| 2026-05-04 14:52 | 40.78917 | -75.70458 | 12799 ft | 406 kts | 108° |
| 2026-05-04 14:52 | 40.78035 | -75.66917 | 12676 ft | 407 kts | 108° |
| 2026-05-04 14:52 | 40.77149 | -75.63365 | 12532 ft | 409 kts | 108° |
| 2026-05-04 14:52 | 40.76260 | -75.59803 | 12415 ft | 409 kts | 108° |
| 2026-05-04 14:53 | 40.75371 | -75.56252 | 12262 ft | 407 kts | 108° |
| 2026-05-04 14:53 | 40.74483 | -75.52705 | 12134 ft | 406 kts | 108° |
| 2026-05-04 14:53 | 40.73596 | -75.49170 | 11991 ft | 406 kts | 108° |
| 2026-05-04 14:53 | 40.72709 | -75.45641 | 11844 ft | 405 kts | 108° |
| 2026-05-04 14:54 | 40.71908 | -75.42086 | 11712 ft | 404 kts | 105° |
| 2026-05-04 14:54 | 40.71213 | -75.38554 | 11572 ft | 402 kts | 104° |
| 2026-05-04 14:54 | 40.70535 | -75.34969 | 11440 ft | 401 kts | 104° |
| 2026-05-04 14:54 | 40.70078 | -75.32567 | 11352 ft | 400 kts | 104° |
| 2026-05-04 14:55 | 40.69399 | -75.29058 | 11221 ft | 398 kts | 104° |
| 2026-05-04 14:55 | 40.68701 | -75.25526 | 11080 ft | 398 kts | 105° |
| 2026-05-04 14:55 | 40.67995 | -75.21992 | 10943 ft | 397 kts | 105° |
| 2026-05-04 14:55 | 40.67289 | -75.18471 | 10810 ft | 396 kts | 105° |
| 2026-05-04 14:56 | 40.65963 | -75.14037 | 10612 ft | 393 kts | 126° |
| 2026-05-04 14:56 | 40.64800 | -75.12154 | 10550 ft | 390 kts | 135° |
| 2026-05-04 14:56 | 40.62959 | -75.09614 | 10428 ft | 388 kts | 136° |
| 2026-05-04 14:56 | 40.61090 | -75.07045 | 10297 ft | 387 kts | 135° |
| 2026-05-04 14:57 | 40.59244 | -75.04454 | 10147 ft | 388 kts | 135° |
| 2026-05-04 14:57 | 40.57425 | -75.01831 | 10050 ft | 388 kts | 131° |
| 2026-05-04 14:57 | 40.56088 | -74.98762 | 10010 ft | 388 kts | 112° |
| 2026-05-04 14:57 | 40.55131 | -74.95428 | 9991 ft | 390 kts | 111° |
| 2026-05-04 14:58 | 40.54177 | -74.92095 | 9988 ft | 389 kts | 111° |
| 2026-05-04 14:58 | 40.53211 | -74.88773 | 9984 ft | 390 kts | 112° |
| 2026-05-04 14:58 | 40.52230 | -74.85451 | 9980 ft | 389 kts | 112° |
| 2026-05-04 14:58 | 40.51242 | -74.82134 | 9986 ft | 386 kts | 112° |
| 2026-05-04 14:59 | 40.50292 | -74.78959 | 9959 ft | 360 kts | 112° |
| 2026-05-04 14:59 | 40.49408 | -74.76011 | 9959 ft | 333 kts | 112° |
| 2026-05-04 14:59 | 40.47793 | -74.70647 | 9784 ft | 309 kts | 112° |
| 2026-05-04 15:00 | 40.47006 | -74.68035 | 9430 ft | 307 kts | 113° |
| 2026-05-04 15:00 | 40.46218 | -74.65426 | 9123 ft | 306 kts | 113° |
| 2026-05-04 15:00 | 40.45437 | -74.62838 | 8998 ft | 304 kts | 113° |
| 2026-05-04 15:01 | 40.43872 | -74.57661 | 8988 ft | 305 kts | 113° |
| 2026-05-04 15:01 | 40.43185 | -74.55030 | 8978 ft | 307 kts | 99° |
| 2026-05-04 15:01 | 40.43258 | -74.52243 | 8986 ft | 306 kts | 74° |
| 2026-05-04 15:01 | 40.43911 | -74.49602 | 9015 ft | 303 kts | 69° |
| 2026-05-04 15:02 | 40.44615 | -74.47030 | 8850 ft | 302 kts | 69° |
| 2026-05-04 15:02 | 40.45334 | -74.44452 | 8511 ft | 301 kts | 69° |
| 2026-05-04 15:02 | 40.46055 | -74.41857 | 8138 ft | 302 kts | 69° |
| 2026-05-04 15:02 | 40.46765 | -74.39268 | 7834 ft | 301 kts | 69° |
| 2026-05-04 15:03 | 40.47469 | -74.36678 | 7479 ft | 301 kts | 70° |
| 2026-05-04 15:03 | 40.48170 | -74.34092 | 7168 ft | 299 kts | 70° |
| 2026-05-04 15:03 | 40.48865 | -74.31513 | 7030 ft | 301 kts | 70° |
| 2026-05-04 15:03 | 40.49563 | -74.28916 | 7003 ft | 301 kts | 70° |
| 2026-05-04 15:04 | 40.50258 | -74.26331 | 7001 ft | 299 kts | 71° |
| 2026-05-04 15:04 | 40.50948 | -74.23745 | 7009 ft | 301 kts | 70° |
| 2026-05-04 15:04 | 40.51644 | -74.21139 | 6985 ft | 300 kts | 70° |
| 2026-05-04 15:04 | 40.52327 | -74.18586 | 7002 ft | 300 kts | 70° |
| 2026-05-04 15:05 | 40.53007 | -74.16033 | 6965 ft | 300 kts | 70° |
| 2026-05-04 15:05 | 40.53695 | -74.13448 | 6818 ft | 297 kts | 70° |
| 2026-05-04 15:05 | 40.54375 | -74.10891 | 6503 ft | 297 kts | 71° |
| 2026-05-04 15:05 | 40.55063 | -74.08318 | 6117 ft | 298 kts | 70° |
| 2026-05-04 15:06 | 40.56136 | -74.06022 | 5769 ft | 295 kts | 39° |
| 2026-05-04 15:06 | 40.57881 | -74.04754 | 5444 ft | 285 kts | 12° |
| 2026-05-04 15:06 | 40.59794 | -74.04214 | 5134 ft | 279 kts | 0° |
| 2026-05-04 15:07 | 40.63682 | -74.03890 | 5047 ft | 283 kts | 358° |
| 2026-05-04 15:07 | 40.65632 | -74.03761 | 4887 ft | 277 kts | 358° |
| 2026-05-04 15:07 | 40.67556 | -74.03591 | 4571 ft | 278 kts | 2° |
| 2026-05-04 15:07 | 40.69467 | -74.03143 | 4200 ft | 280 kts | 7° |
| 2026-05-04 15:08 | 40.71372 | -74.02616 | 4034 ft | 279 kts | 7° |
| 2026-05-04 15:08 | 40.73264 | -74.02081 | 4029 ft | 277 kts | 7° |
| 2026-05-04 15:08 | 40.75130 | -74.01543 | 4031 ft | 280 kts | 7° |
| 2026-05-04 15:08 | 40.77030 | -74.00877 | 4025 ft | 285 kts | 15° |
| 2026-05-04 15:09 | 40.78865 | -73.99965 | 4003 ft | 278 kts | 17° |
| 2026-05-04 15:09 | 40.80640 | -73.99042 | 3984 ft | 269 kts | 18° |
| 2026-05-04 15:09 | 40.82346 | -73.98147 | 3962 ft | 258 kts | 17° |
| 2026-05-04 15:10 | 40.85383 | -73.95935 | 3790 ft | 242 kts | 27° |
| 2026-05-04 15:10 | 40.86825 | -73.94791 | 3565 ft | 242 kts | 27° |
| 2026-05-04 15:10 | 40.89733 | -73.92490 | 3097 ft | 242 kts | 27° |
| 2026-05-04 15:11 | 40.91183 | -73.91344 | 2847 ft | 243 kts | 27° |
| 2026-05-04 15:11 | 40.92624 | -73.90197 | 2748 ft | 241 kts | 27° |
| 2026-05-04 15:11 | 40.94054 | -73.89035 | 2634 ft | 242 kts | 37° |
| 2026-05-04 15:11 | 40.94963 | -73.87247 | 2583 ft | 233 kts | 80° |
| 2026-05-04 15:12 | 40.94844 | -73.85247 | 2502 ft | 209 kts | 121° |
| 2026-05-04 15:12 | 40.94249 | -73.83565 | 2435 ft | 199 kts | 122° |
| 2026-05-04 15:12 | 40.93664 | -73.81908 | 2220 ft | 197 kts | 122° |
| 2026-05-04 15:12 | 40.93088 | -73.80304 | 1986 ft | 196 kts | 122° |
| 2026-05-04 15:13 | 40.92233 | -73.79047 | 1911 ft | 175 kts | 164° |
| 2026-05-04 15:13 | 40.91052 | -73.78762 | 1890 ft | 173 kts | 180° |
| 2026-05-04 15:13 | 40.89844 | -73.78563 | 1885 ft | 175 kts | 181° |
| 2026-05-04 15:13 | 40.88707 | -73.78974 | 1921 ft | 170 kts | 214° |
| 2026-05-04 15:14 | 40.87684 | -73.79704 | 1883 ft | 158 kts | 208° |
| 2026-05-04 15:14 | 40.86704 | -73.80346 | 1898 ft | 166 kts | 212° |
| 2026-05-04 15:14 | 40.85707 | -73.81110 | 1713 ft | 160 kts | 214° |
| 2026-05-04 15:14 | 40.84817 | -73.81856 | 1505 ft | 141 kts | 215° |
| 2026-05-04 15:15 | 40.84039 | -73.82517 | 1333 ft | 125 kts | 214° |
| 2026-05-04 15:15 | 40.83324 | -73.83103 | 1160 ft | 118 kts | 214° |
| 2026-05-04 15:15 | 40.82632 | -73.83676 | 993 ft | 118 kts | 212° |
| 2026-05-04 15:16 | 40.81207 | -73.84862 | 684 ft | 124 kts | 213° |
| 2026-05-04 15:16 | 40.80459 | -73.85471 | 475 ft | 128 kts | 215° |
| 2026-05-04 15:16 | 40.79041 | -73.86660 | 163 ft | 122 kts | 213° |
| 2026-05-04 15:17 | 40.78333 | -73.87243 | 33 ft | 118 kts | 213° |
| 2026-05-04 15:17 | 40.77334 | -73.88069 | 22 ft | 51 kts | 212° |
| 2026-05-04 15:17 | 40.77118 | -73.88240 | 23 ft | 21 kts | 193° |
| 2026-05-04 15:18 | 40.77065 | -73.88144 | 24 ft | 15 kts | 44° |
| 2026-05-04 15:18 | 40.77181 | -73.88047 | 21 ft | 27 kts | 32° |
| 2026-05-04 15:18 | 40.77354 | -73.87904 | 19 ft | 30 kts | 32° |
| 2026-05-04 15:19 | 40.77538 | -73.87692 | 19 ft | 11 kts | 111° |
| 2026-05-04 15:19 | 40.77509 | -73.87600 | 19 ft | 10 kts | 77° |
| 2026-05-04 15:19 | 40.77592 | -73.87501 | 19 ft | 5 kts | 76° |
| 2026-05-04 15:20 | 40.77586 | -73.87466 | 19 ft | 0 kts | 109° |
| 2026-05-04 15:20 | 40.77582 | -73.87450 | 19 ft | 2 kts | 108° |
| 2026-05-04 15:21 | 40.77581 | -73.87444 | 19 ft | 0 kts | 108° |